sensor_id;sensor_type;location;lat;lon;timestamp;pressure;altitude;pressure_sealevel;temperature
44429;BMP180;30134;47.866;-4.222;2023-05-10T00:01:33;101538.00;;;22.60
44429;BMP180;30134;47.866;-4.222;2023-05-10T00:03:59;101542.00;;;22.60
44429;BMP180;30134;47.866;-4.222;2023-05-10T00:06:26;101533.00;;;22.50
44429;BMP180;30134;47.866;-4.222;2023-05-10T00:08:52;101528.00;;;22.60
44429;BMP180;30134;47.866;-4.222;2023-05-10T00:11:18;101539.00;;;22.50
44429;BMP180;30134;47.866;-4.222;2023-05-10T00:13:44;101525.00;;;22.50
44429;BMP180;30134;47.866;-4.222;2023-05-10T00:16:10;101526.00;;;22.50
44429;BMP180;30134;47.866;-4.222;2023-05-10T00:18:37;101528.00;;;22.50
44429;BMP180;30134;47.866;-4.222;2023-05-10T00:21:04;101525.00;;;22.50
44429;BMP180;30134;47.866;-4.222;2023-05-10T00:23:30;101524.00;;;22.50
44429;BMP180;30134;47.866;-4.222;2023-05-10T00:25:56;101523.00;;;22.40
44429;BMP180;30134;47.866;-4.222;2023-05-10T00:28:22;101523.00;;;22.50
44429;BMP180;30134;47.866;-4.222;2023-05-10T00:30:48;101516.00;;;22.50
44429;BMP180;30134;47.866;-4.222;2023-05-10T00:33:14;101514.00;;;22.40
44429;BMP180;30134;47.866;-4.222;2023-05-10T00:35:40;101520.00;;;22.30
44429;BMP180;30134;47.866;-4.222;2023-05-10T00:38:13;101518.00;;;22.40
44429;BMP180;30134;47.866;-4.222;2023-05-10T00:40:38;101524.00;;;22.50
44429;BMP180;30134;47.866;-4.222;2023-05-10T00:43:11;101520.00;;;22.50
44429;BMP180;30134;47.866;-4.222;2023-05-10T00:45:38;101526.00;;;22.50
44429;BMP180;30134;47.866;-4.222;2023-05-10T00:48:05;101518.00;;;22.40
44429;BMP180;30134;47.866;-4.222;2023-05-10T00:50:34;101520.00;;;22.30
44429;BMP180;30134;47.866;-4.222;2023-05-10T00:53:01;101518.00;;;22.20
44429;BMP180;30134;47.866;-4.222;2023-05-10T00:55:28;101525.00;;;22.30
44429;BMP180;30134;47.866;-4.222;2023-05-10T00:57:54;101514.00;;;22.30
44429;BMP180;30134;47.866;-4.222;2023-05-10T01:00:20;101519.00;;;22.20
44429;BMP180;30134;47.866;-4.222;2023-05-10T01:02:47;101521.00;;;22.20
44429;BMP180;30134;47.866;-4.222;2023-05-10T01:05:14;101517.00;;;22.20
44429;BMP180;30134;47.866;-4.222;2023-05-10T01:07:40;101518.00;;;22.30
44429;BMP180;30134;47.866;-4.222;2023-05-10T01:10:07;101515.00;;;22.50
44429;BMP180;30134;47.866;-4.222;2023-05-10T01:12:39;101508.00;;;22.40
44429;BMP180;30134;47.866;-4.222;2023-05-10T01:15:07;101517.00;;;22.30
44429;BMP180;30134;47.866;-4.222;2023-05-10T01:17:36;101510.00;;;22.30
44429;BMP180;30134;47.866;-4.222;2023-05-10T01:20:04;101504.00;;;22.50
44429;BMP180;30134;47.866;-4.222;2023-05-10T01:23:07;101510.00;;;22.40
44429;BMP180;30134;47.866;-4.222;2023-05-10T01:34:13;101504.00;;;22.50
44429;BMP180;30134;47.866;-4.222;2023-05-10T01:36:58;101499.00;;;22.40
44429;BMP180;30134;47.866;-4.222;2023-05-10T01:39:36;101498.00;;;22.40
44429;BMP180;30134;47.866;-4.222;2023-05-10T01:42:10;101492.00;;;22.40
44429;BMP180;30134;47.866;-4.222;2023-05-10T01:44:49;101491.00;;;22.40
44429;BMP180;30134;47.866;-4.222;2023-05-10T01:50:02;101498.00;;;22.20
44429;BMP180;30134;47.866;-4.222;2023-05-10T01:52:42;101487.00;;;22.30
44429;BMP180;30134;47.866;-4.222;2023-05-10T01:55:16;101481.00;;;22.20
44429;BMP180;30134;47.866;-4.222;2023-05-10T01:57:45;101484.00;;;22.30
44429;BMP180;30134;47.866;-4.222;2023-05-10T02:00:13;101478.00;;;22.20
44429;BMP180;30134;47.866;-4.222;2023-05-10T02:02:47;101478.00;;;22.40
44429;BMP180;30134;47.866;-4.222;2023-05-10T02:05:16;101481.00;;;22.50
44429;BMP180;30134;47.866;-4.222;2023-05-10T02:07:43;101479.00;;;22.20
44429;BMP180;30134;47.866;-4.222;2023-05-10T02:10:11;101480.00;;;22.40
44429;BMP180;30134;47.866;-4.222;2023-05-10T02:12:42;101484.00;;;22.50
44429;BMP180;30134;47.866;-4.222;2023-05-10T02:15:12;101484.00;;;22.50
44429;BMP180;30134;47.866;-4.222;2023-05-10T02:17:39;101481.00;;;22.40
44429;BMP180;30134;47.866;-4.222;2023-05-10T02:20:09;101488.00;;;22.40
44429;BMP180;30134;47.866;-4.222;2023-05-10T02:22:37;101492.00;;;22.50
44429;BMP180;30134;47.866;-4.222;2023-05-10T02:25:04;101482.00;;;22.40
44429;BMP180;30134;47.866;-4.222;2023-05-10T02:27:31;101487.00;;;22.20
44429;BMP180;30134;47.866;-4.222;2023-05-10T02:29:58;101481.00;;;22.10
44429;BMP180;30134;47.866;-4.222;2023-05-10T02:32:26;101479.00;;;22.20
44429;BMP180;30134;47.866;-4.222;2023-05-10T02:34:53;101478.00;;;22.30
44429;BMP180;30134;47.866;-4.222;2023-05-10T02:37:20;101483.00;;;22.20
44429;BMP180;30134;47.866;-4.222;2023-05-10T02:39:49;101482.00;;;22.30
44429;BMP180;30134;47.866;-4.222;2023-05-10T02:42:19;101491.00;;;22.20
44429;BMP180;30134;47.866;-4.222;2023-05-10T02:44:48;101489.00;;;22.20
44429;BMP180;30134;47.866;-4.222;2023-05-10T02:47:17;101496.00;;;22.20
44429;BMP180;30134;47.866;-4.222;2023-05-10T02:49:43;101495.00;;;22.20
44429;BMP180;30134;47.866;-4.222;2023-05-10T02:52:10;101493.00;;;22.10
44429;BMP180;30134;47.866;-4.222;2023-05-10T02:54:50;101494.00;;;22.30
44429;BMP180;30134;47.866;-4.222;2023-05-10T02:57:17;101498.00;;;22.40
44429;BMP180;30134;47.866;-4.222;2023-05-10T02:59:46;101491.00;;;22.50
44429;BMP180;30134;47.866;-4.222;2023-05-10T03:02:13;101494.00;;;22.40
44429;BMP180;30134;47.866;-4.222;2023-05-10T03:04:40;101494.00;;;22.30
44429;BMP180;30134;47.866;-4.222;2023-05-10T03:07:06;101494.00;;;22.30
44429;BMP180;30134;47.866;-4.222;2023-05-10T03:09:33;101493.00;;;22.10
44429;BMP180;30134;47.866;-4.222;2023-05-10T03:15:00;101490.00;;;22.10
44429;BMP180;30134;47.866;-4.222;2023-05-10T03:17:32;101492.00;;;21.90
44429;BMP180;30134;47.866;-4.222;2023-05-10T03:20:08;101485.00;;;22.00
44429;BMP180;30134;47.866;-4.222;2023-05-10T03:22:45;101489.00;;;22.10
44429;BMP180;30134;47.866;-4.222;2023-05-10T03:25:13;101489.00;;;22.20
44429;BMP180;30134;47.866;-4.222;2023-05-10T03:27:43;101483.00;;;22.30
44429;BMP180;30134;47.866;-4.222;2023-05-10T03:30:13;101484.00;;;22.30
44429;BMP180;30134;47.866;-4.222;2023-05-10T03:32:39;101482.00;;;22.20
44429;BMP180;30134;47.866;-4.222;2023-05-10T03:35:12;101476.00;;;22.30
44429;BMP180;30134;47.866;-4.222;2023-05-10T03:37:39;101478.00;;;22.30
44429;BMP180;30134;47.866;-4.222;2023-05-10T03:40:07;101475.00;;;22.40
44429;BMP180;30134;47.866;-4.222;2023-05-10T03:42:33;101473.00;;;22.30
44429;BMP180;30134;47.866;-4.222;2023-05-10T03:45:00;101479.00;;;22.20
44429;BMP180;30134;47.866;-4.222;2023-05-10T03:47:26;101468.00;;;22.00
44429;BMP180;30134;47.866;-4.222;2023-05-10T03:49:52;101479.00;;;22.10
44429;BMP180;30134;47.866;-4.222;2023-05-10T03:52:18;101470.00;;;22.20
44429;BMP180;30134;47.866;-4.222;2023-05-10T03:54:44;101469.00;;;22.30
44429;BMP180;30134;47.866;-4.222;2023-05-10T03:57:10;101467.00;;;22.30
44429;BMP180;30134;47.866;-4.222;2023-05-10T03:59:36;101474.00;;;22.30
44429;BMP180;30134;47.866;-4.222;2023-05-10T04:02:02;101467.00;;;22.10
44429;BMP180;30134;47.866;-4.222;2023-05-10T04:04:28;101468.00;;;22.10
44429;BMP180;30134;47.866;-4.222;2023-05-10T04:06:54;101470.00;;;22.20
44429;BMP180;30134;47.866;-4.222;2023-05-10T04:09:20;101469.00;;;22.20
44429;BMP180;30134;47.866;-4.222;2023-05-10T04:11:46;101467.00;;;22.20
44429;BMP180;30134;47.866;-4.222;2023-05-10T04:14:12;101469.00;;;22.30
44429;BMP180;30134;47.866;-4.222;2023-05-10T04:16:38;101473.00;;;22.20
44429;BMP180;30134;47.866;-4.222;2023-05-10T04:19:04;101469.00;;;22.10
44429;BMP180;30134;47.866;-4.222;2023-05-10T04:21:30;101461.00;;;22.00
44429;BMP180;30134;47.866;-4.222;2023-05-10T04:23:56;101458.00;;;22.20
44429;BMP180;30134;47.866;-4.222;2023-05-10T04:26:22;101452.00;;;22.30
44429;BMP180;30134;47.866;-4.222;2023-05-10T04:28:49;101471.00;;;22.30
44429;BMP180;30134;47.866;-4.222;2023-05-10T04:31:14;101475.00;;;22.00
44429;BMP180;30134;47.866;-4.222;2023-05-10T04:33:41;101466.00;;;22.00
44429;BMP180;30134;47.866;-4.222;2023-05-10T04:36:07;101466.00;;;22.00
44429;BMP180;30134;47.866;-4.222;2023-05-10T04:38:33;101470.00;;;21.90
44429;BMP180;30134;47.866;-4.222;2023-05-10T04:41:09;101465.00;;;21.90
44429;BMP180;30134;47.866;-4.222;2023-05-10T04:43:36;101469.00;;;22.10
44429;BMP180;30134;47.866;-4.222;2023-05-10T04:46:03;101472.00;;;22.00
44429;BMP180;30134;47.866;-4.222;2023-05-10T04:48:30;101463.00;;;22.00
44429;BMP180;30134;47.866;-4.222;2023-05-10T04:50:56;101467.00;;;21.90
44429;BMP180;30134;47.866;-4.222;2023-05-10T04:53:22;101469.00;;;22.00
44429;BMP180;30134;47.866;-4.222;2023-05-10T04:55:48;101468.00;;;21.90
44429;BMP180;30134;47.866;-4.222;2023-05-10T04:58:14;101471.00;;;22.20
44429;BMP180;30134;47.866;-4.222;2023-05-10T05:00:40;101474.00;;;22.10
44429;BMP180;30134;47.866;-4.222;2023-05-10T05:03:07;101478.00;;;22.00
44429;BMP180;30134;47.866;-4.222;2023-05-10T05:05:33;101472.00;;;22.30
44429;BMP180;30134;47.866;-4.222;2023-05-10T05:07:59;101482.00;;;22.20
44429;BMP180;30134;47.866;-4.222;2023-05-10T05:10:25;101477.00;;;22.00
44429;BMP180;30134;47.866;-4.222;2023-05-10T05:12:51;101483.00;;;21.90
44429;BMP180;30134;47.866;-4.222;2023-05-10T05:15:17;101482.00;;;22.00
44429;BMP180;30134;47.866;-4.222;2023-05-10T05:17:43;101483.00;;;22.10
44429;BMP180;30134;47.866;-4.222;2023-05-10T05:20:10;101489.00;;;22.20
44429;BMP180;30134;47.866;-4.222;2023-05-10T05:22:37;101496.00;;;22.20
44429;BMP180;30134;47.866;-4.222;2023-05-10T05:25:06;101487.00;;;22.20
44429;BMP180;30134;47.866;-4.222;2023-05-10T05:27:32;101488.00;;;22.20
44429;BMP180;30134;47.866;-4.222;2023-05-10T05:29:58;101488.00;;;22.20
44429;BMP180;30134;47.866;-4.222;2023-05-10T05:32:25;101493.00;;;22.00
44429;BMP180;30134;47.866;-4.222;2023-05-10T05:34:51;101491.00;;;22.10
44429;BMP180;30134;47.866;-4.222;2023-05-10T05:37:21;101494.00;;;22.20
44429;BMP180;30134;47.866;-4.222;2023-05-10T05:39:48;101496.00;;;22.00
44429;BMP180;30134;47.866;-4.222;2023-05-10T05:42:14;101497.00;;;21.90
44429;BMP180;30134;47.866;-4.222;2023-05-10T05:44:42;101498.00;;;22.00
44429;BMP180;30134;47.866;-4.222;2023-05-10T05:47:08;101496.00;;;22.10
44429;BMP180;30134;47.866;-4.222;2023-05-10T05:49:34;101504.00;;;21.80
44429;BMP180;30134;47.866;-4.222;2023-05-10T05:52:02;101508.00;;;21.90
44429;BMP180;30134;47.866;-4.222;2023-05-10T05:54:28;101500.00;;;21.90
44429;BMP180;30134;47.866;-4.222;2023-05-10T05:56:56;101503.00;;;21.90
44429;BMP180;30134;47.866;-4.222;2023-05-10T05:59:22;101503.00;;;21.80
44429;BMP180;30134;47.866;-4.222;2023-05-10T06:01:48;101510.00;;;21.80
44429;BMP180;30134;47.866;-4.222;2023-05-10T06:04:15;101506.00;;;22.00
44429;BMP180;30134;47.866;-4.222;2023-05-10T06:06:41;101505.00;;;21.80
44429;BMP180;30134;47.866;-4.222;2023-05-10T06:09:08;101518.00;;;21.80
44429;BMP180;30134;47.866;-4.222;2023-05-10T06:11:35;101510.00;;;21.80
44429;BMP180;30134;47.866;-4.222;2023-05-10T06:14:02;101512.00;;;21.80
44429;BMP180;30134;47.866;-4.222;2023-05-10T06:16:30;101513.00;;;22.00
44429;BMP180;30134;47.866;-4.222;2023-05-10T06:18:57;101519.00;;;21.80
44429;BMP180;30134;47.866;-4.222;2023-05-10T06:21:23;101526.00;;;21.90
44429;BMP180;30134;47.866;-4.222;2023-05-10T06:23:49;101521.00;;;21.80
44429;BMP180;30134;47.866;-4.222;2023-05-10T06:26:15;101530.00;;;21.80
44429;BMP180;30134;47.866;-4.222;2023-05-10T06:28:41;101525.00;;;21.80
44429;BMP180;30134;47.866;-4.222;2023-05-10T06:31:07;101529.00;;;21.90
44429;BMP180;30134;47.866;-4.222;2023-05-10T06:33:33;101531.00;;;22.00
44429;BMP180;30134;47.866;-4.222;2023-05-10T06:36:00;101535.00;;;21.90
44429;BMP180;30134;47.866;-4.222;2023-05-10T06:38:26;101531.00;;;21.90
44429;BMP180;30134;47.866;-4.222;2023-05-10T06:40:52;101535.00;;;22.00
44429;BMP180;30134;47.866;-4.222;2023-05-10T06:43:18;101540.00;;;22.10
44429;BMP180;30134;47.866;-4.222;2023-05-10T06:45:44;101550.00;;;21.90
44429;BMP180;30134;47.866;-4.222;2023-05-10T06:48:10;101540.00;;;21.80
44429;BMP180;30134;47.866;-4.222;2023-05-10T06:50:36;101542.00;;;21.80
44429;BMP180;30134;47.866;-4.222;2023-05-10T06:53:02;101552.00;;;21.80
44429;BMP180;30134;47.866;-4.222;2023-05-10T06:55:28;101551.00;;;21.90
44429;BMP180;30134;47.866;-4.222;2023-05-10T06:57:54;101559.00;;;22.00
44429;BMP180;30134;47.866;-4.222;2023-05-10T07:00:21;101552.00;;;22.10
44429;BMP180;30134;47.866;-4.222;2023-05-10T07:02:47;101558.00;;;21.90
44429;BMP180;30134;47.866;-4.222;2023-05-10T07:05:13;101558.00;;;22.00
44429;BMP180;30134;47.866;-4.222;2023-05-10T07:07:40;101556.00;;;21.90
44429;BMP180;30134;47.866;-4.222;2023-05-10T07:10:07;101552.00;;;21.80
44429;BMP180;30134;47.866;-4.222;2023-05-10T07:12:33;101561.00;;;21.90
44429;BMP180;30134;47.866;-4.222;2023-05-10T07:14:59;101561.00;;;22.00
44429;BMP180;30134;47.866;-4.222;2023-05-10T07:17:25;101563.00;;;22.00
44429;BMP180;30134;47.866;-4.222;2023-05-10T07:19:51;101560.00;;;22.00
44429;BMP180;30134;47.866;-4.222;2023-05-10T07:22:17;101568.00;;;21.90
44429;BMP180;30134;47.866;-4.222;2023-05-10T07:24:44;101567.00;;;21.90
44429;BMP180;30134;47.866;-4.222;2023-05-10T07:27:10;101571.00;;;22.00
44429;BMP180;30134;47.866;-4.222;2023-05-10T07:29:36;101565.00;;;22.00
44429;BMP180;30134;47.866;-4.222;2023-05-10T07:32:03;101563.00;;;21.90
44429;BMP180;30134;47.866;-4.222;2023-05-10T07:34:29;101569.00;;;22.00
44429;BMP180;30134;47.866;-4.222;2023-05-10T07:36:59;101573.00;;;22.00
44429;BMP180;30134;47.866;-4.222;2023-05-10T07:39:27;101567.00;;;21.80
44429;BMP180;30134;47.866;-4.222;2023-05-10T07:41:56;101567.00;;;21.80
44429;BMP180;30134;47.866;-4.222;2023-05-10T07:44:22;101563.00;;;22.00
44429;BMP180;30134;47.866;-4.222;2023-05-10T07:46:49;101557.00;;;21.80
44429;BMP180;30134;47.866;-4.222;2023-05-10T07:49:15;101568.00;;;22.00
44429;BMP180;30134;47.866;-4.222;2023-05-10T07:51:41;101572.00;;;22.00
44429;BMP180;30134;47.866;-4.222;2023-05-10T07:54:08;101569.00;;;22.00
44429;BMP180;30134;47.866;-4.222;2023-05-10T07:56:34;101568.00;;;22.00
44429;BMP180;30134;47.866;-4.222;2023-05-10T07:59:02;101565.00;;;22.00
44429;BMP180;30134;47.866;-4.222;2023-05-10T08:01:34;101565.00;;;22.00
44429;BMP180;30134;47.866;-4.222;2023-05-10T08:04:00;101556.00;;;22.00
44429;BMP180;30134;47.866;-4.222;2023-05-10T08:06:27;101558.00;;;22.00
44429;BMP180;30134;47.866;-4.222;2023-05-10T08:08:56;101550.00;;;21.90
44429;BMP180;30134;47.866;-4.222;2023-05-10T08:11:22;101559.00;;;22.10
44429;BMP180;30134;47.866;-4.222;2023-05-10T08:13:50;101559.00;;;21.80
44429;BMP180;30134;47.866;-4.222;2023-05-10T08:16:17;101562.00;;;21.80
44429;BMP180;30134;47.866;-4.222;2023-05-10T08:18:44;101562.00;;;22.00
44429;BMP180;30134;47.866;-4.222;2023-05-10T08:21:13;101561.00;;;21.90
44429;BMP180;30134;47.866;-4.222;2023-05-10T08:23:39;101560.00;;;21.70
44429;BMP180;30134;47.866;-4.222;2023-05-10T08:26:06;101564.00;;;21.90
44429;BMP180;30134;47.866;-4.222;2023-05-10T08:28:32;101567.00;;;21.90
44429;BMP180;30134;47.866;-4.222;2023-05-10T08:30:58;101577.00;;;21.80
44429;BMP180;30134;47.866;-4.222;2023-05-10T08:33:24;101578.00;;;22.00
44429;BMP180;30134;47.866;-4.222;2023-05-10T08:35:51;101565.00;;;22.00
44429;BMP180;30134;47.866;-4.222;2023-05-10T08:38:18;101568.00;;;21.90
44429;BMP180;30134;47.866;-4.222;2023-05-10T08:40:44;101568.00;;;21.80
44429;BMP180;30134;47.866;-4.222;2023-05-10T08:43:13;101570.00;;;22.00
44429;BMP180;30134;47.866;-4.222;2023-05-10T08:45:44;101571.00;;;21.90
44429;BMP180;30134;47.866;-4.222;2023-05-10T08:48:14;101568.00;;;22.10
44429;BMP180;30134;47.866;-4.222;2023-05-10T08:50:42;101571.00;;;22.20
44429;BMP180;30134;47.866;-4.222;2023-05-10T08:53:15;101579.00;;;21.80
44429;BMP180;30134;47.866;-4.222;2023-05-10T08:55:42;101585.00;;;21.90
44429;BMP180;30134;47.866;-4.222;2023-05-10T08:58:09;101575.00;;;22.20
44429;BMP180;30134;47.866;-4.222;2023-05-10T09:00:36;101581.00;;;22.20
44429;BMP180;30134;47.866;-4.222;2023-05-10T09:03:05;101576.00;;;22.50
44429;BMP180;30134;47.866;-4.222;2023-05-10T09:05:32;101577.00;;;22.60
44429;BMP180;30134;47.866;-4.222;2023-05-10T09:07:58;101570.00;;;22.70
44429;BMP180;30134;47.866;-4.222;2023-05-10T09:10:26;101568.00;;;22.80
44429;BMP180;30134;47.866;-4.222;2023-05-10T09:12:55;101581.00;;;22.80
44429;BMP180;30134;47.866;-4.222;2023-05-10T09:15:22;101576.00;;;22.90
44429;BMP180;30134;47.866;-4.222;2023-05-10T09:17:49;101590.00;;;23.00
44429;BMP180;30134;47.866;-4.222;2023-05-10T09:20:16;101595.00;;;23.00
44429;BMP180;30134;47.866;-4.222;2023-05-10T09:22:43;101590.00;;;23.00
44429;BMP180;30134;47.866;-4.222;2023-05-10T09:25:15;101597.00;;;23.10
44429;BMP180;30134;47.866;-4.222;2023-05-10T09:27:47;101592.00;;;23.10
44429;BMP180;30134;47.866;-4.222;2023-05-10T09:32:46;101602.00;;;23.20
44429;BMP180;30134;47.866;-4.222;2023-05-10T09:35:19;101589.00;;;23.20
44429;BMP180;30134;47.866;-4.222;2023-05-10T09:37:49;101599.00;;;23.20
44429;BMP180;30134;47.866;-4.222;2023-05-10T09:40:21;101604.00;;;23.30
44429;BMP180;30134;47.866;-4.222;2023-05-10T09:43:02;101601.00;;;23.30
44429;BMP180;30134;47.866;-4.222;2023-05-10T09:45:31;101600.00;;;23.40
44429;BMP180;30134;47.866;-4.222;2023-05-10T09:47:59;101605.00;;;23.40
44429;BMP180;30134;47.866;-4.222;2023-05-10T09:50:26;101603.00;;;23.40
44429;BMP180;30134;47.866;-4.222;2023-05-10T09:53:01;101605.00;;;23.50
44429;BMP180;30134;47.866;-4.222;2023-05-10T09:55:45;101607.00;;;23.30
44429;BMP180;30134;47.866;-4.222;2023-05-10T09:58:13;101601.00;;;23.40
44429;BMP180;30134;47.866;-4.222;2023-05-10T10:00:44;101614.00;;;23.60
44429;BMP180;30134;47.866;-4.222;2023-05-10T10:03:18;101603.00;;;23.50
44429;BMP180;30134;47.866;-4.222;2023-05-10T10:05:47;101612.00;;;23.50
44429;BMP180;30134;47.866;-4.222;2023-05-10T10:08:14;101616.00;;;23.60
44429;BMP180;30134;47.866;-4.222;2023-05-10T10:10:42;101615.00;;;23.50
44429;BMP180;30134;47.866;-4.222;2023-05-10T10:13:10;101605.00;;;23.60
44429;BMP180;30134;47.866;-4.222;2023-05-10T10:15:39;101607.00;;;23.60
44429;BMP180;30134;47.866;-4.222;2023-05-10T10:18:05;101618.00;;;23.60
44429;BMP180;30134;47.866;-4.222;2023-05-10T10:20:32;101626.00;;;23.60
44429;BMP180;30134;47.866;-4.222;2023-05-10T10:22:58;101627.00;;;23.60
44429;BMP180;30134;47.866;-4.222;2023-05-10T10:25:25;101612.00;;;23.60
44429;BMP180;30134;47.866;-4.222;2023-05-10T10:33:40;101616.00;;;23.60
44429;BMP180;30134;47.866;-4.222;2023-05-10T10:36:15;101619.00;;;23.70
44429;BMP180;30134;47.866;-4.222;2023-05-10T10:41:34;101619.00;;;23.70
44429;BMP180;30134;47.866;-4.222;2023-05-10T10:49:51;101618.00;;;23.60
44429;BMP180;30134;47.866;-4.222;2023-05-10T10:52:36;101617.00;;;23.70
44429;BMP180;30134;47.866;-4.222;2023-05-10T10:55:14;101609.00;;;23.80
44429;BMP180;30134;47.866;-4.222;2023-05-10T10:57:53;101626.00;;;23.70
44429;BMP180;30134;47.866;-4.222;2023-05-10T11:00:38;101618.00;;;23.70
44429;BMP180;30134;47.866;-4.222;2023-05-10T11:08:41;101623.00;;;23.80
44429;BMP180;30134;47.866;-4.222;2023-05-10T11:11:08;101607.00;;;23.80
44429;BMP180;30134;47.866;-4.222;2023-05-10T11:13:42;101613.00;;;23.80
44429;BMP180;30134;47.866;-4.222;2023-05-10T11:16:23;101605.00;;;23.80
44429;BMP180;30134;47.866;-4.222;2023-05-10T11:19:09;101613.00;;;23.90
44429;BMP180;30134;47.866;-4.222;2023-05-10T11:22:12;101620.00;;;23.90
44429;BMP180;30134;47.866;-4.222;2023-05-10T11:24:57;101608.00;;;23.90
44429;BMP180;30134;47.866;-4.222;2023-05-10T11:27:26;101615.00;;;23.80
44429;BMP180;30134;47.866;-4.222;2023-05-10T11:29:52;101609.00;;;23.80
44429;BMP180;30134;47.866;-4.222;2023-05-10T11:32:19;101616.00;;;23.80
44429;BMP180;30134;47.866;-4.222;2023-05-10T11:34:47;101614.00;;;23.80
44429;BMP180;30134;47.866;-4.222;2023-05-10T11:37:14;101615.00;;;23.90
44429;BMP180;30134;47.866;-4.222;2023-05-10T11:39:46;101618.00;;;23.90
44429;BMP180;30134;47.866;-4.222;2023-05-10T11:42:13;101602.00;;;24.00
44429;BMP180;30134;47.866;-4.222;2023-05-10T11:44:39;101614.00;;;23.90
44429;BMP180;30134;47.866;-4.222;2023-05-10T11:47:06;101605.00;;;23.90
44429;BMP180;30134;47.866;-4.222;2023-05-10T11:49:32;101616.00;;;24.10
44429;BMP180;30134;47.866;-4.222;2023-05-10T11:52:08;101615.00;;;24.00
44429;BMP180;30134;47.866;-4.222;2023-05-10T11:54:36;101608.00;;;24.00
44429;BMP180;30134;47.866;-4.222;2023-05-10T11:57:03;101619.00;;;24.00
44429;BMP180;30134;47.866;-4.222;2023-05-10T11:59:29;101604.00;;;24.00
44429;BMP180;30134;47.866;-4.222;2023-05-10T12:01:55;101601.00;;;24.10
44429;BMP180;30134;47.866;-4.222;2023-05-10T12:04:22;101613.00;;;24.10
44429;BMP180;30134;47.866;-4.222;2023-05-10T12:06:48;101599.00;;;24.10
44429;BMP180;30134;47.866;-4.222;2023-05-10T12:09:14;101599.00;;;24.10
44429;BMP180;30134;47.866;-4.222;2023-05-10T12:11:40;101604.00;;;24.20
44429;BMP180;30134;47.866;-4.222;2023-05-10T12:14:11;101600.00;;;24.20
44429;BMP180;30134;47.866;-4.222;2023-05-10T12:16:37;101604.00;;;24.20
44429;BMP180;30134;47.866;-4.222;2023-05-10T12:19:03;101609.00;;;24.20
44429;BMP180;30134;47.866;-4.222;2023-05-10T12:21:30;101617.00;;;24.10
44429;BMP180;30134;47.866;-4.222;2023-05-10T12:24:02;101603.00;;;24.10
44429;BMP180;30134;47.866;-4.222;2023-05-10T12:26:29;101596.00;;;24.20
44429;BMP180;30134;47.866;-4.222;2023-05-10T12:29:15;101601.00;;;24.20
44429;BMP180;30134;47.866;-4.222;2023-05-10T12:31:56;101587.00;;;24.30
44429;BMP180;30134;47.866;-4.222;2023-05-10T12:34:35;101593.00;;;24.20
44429;BMP180;30134;47.866;-4.222;2023-05-10T12:37:04;101595.00;;;24.30
44429;BMP180;30134;47.866;-4.222;2023-05-10T12:39:44;101595.00;;;24.30
44429;BMP180;30134;47.866;-4.222;2023-05-10T12:42:11;101600.00;;;24.40
44429;BMP180;30134;47.866;-4.222;2023-05-10T12:44:38;101603.00;;;24.30
44429;BMP180;30134;47.866;-4.222;2023-05-10T12:47:04;101593.00;;;23.60
44429;BMP180;30134;47.866;-4.222;2023-05-10T12:49:31;101595.00;;;22.40
44429;BMP180;30134;47.866;-4.222;2023-05-10T12:52:01;101603.00;;;22.20
44429;BMP180;30134;47.866;-4.222;2023-05-10T12:54:27;101606.00;;;22.70
44429;BMP180;30134;47.866;-4.222;2023-05-10T12:56:53;101603.00;;;22.50
44429;BMP180;30134;47.866;-4.222;2023-05-10T12:59:19;101599.00;;;22.40
44429;BMP180;30134;47.866;-4.222;2023-05-10T13:01:45;101607.00;;;22.50
44429;BMP180;30134;47.866;-4.222;2023-05-10T13:04:11;101606.00;;;22.30
44429;BMP180;30134;47.866;-4.222;2023-05-10T13:06:37;101614.00;;;22.70
44429;BMP180;30134;47.866;-4.222;2023-05-10T13:09:06;101618.00;;;22.60
44429;BMP180;30134;47.866;-4.222;2023-05-10T13:11:32;101616.00;;;22.80
44429;BMP180;30134;47.866;-4.222;2023-05-10T13:13:59;101605.00;;;22.70
44429;BMP180;30134;47.866;-4.222;2023-05-10T13:16:24;101597.00;;;22.70
44429;BMP180;30134;47.866;-4.222;2023-05-10T13:18:51;101609.00;;;22.80
44429;BMP180;30134;47.866;-4.222;2023-05-10T13:21:17;101589.00;;;22.60
44429;BMP180;30134;47.866;-4.222;2023-05-10T13:23:43;101612.00;;;22.60
44429;BMP180;30134;47.866;-4.222;2023-05-10T13:26:09;101594.00;;;22.70
44429;BMP180;30134;47.866;-4.222;2023-05-10T13:28:35;101590.00;;;22.70
44429;BMP180;30134;47.866;-4.222;2023-05-10T13:31:01;101590.00;;;22.70
44429;BMP180;30134;47.866;-4.222;2023-05-10T13:33:27;101590.00;;;22.60
44429;BMP180;30134;47.866;-4.222;2023-05-10T13:35:53;101587.00;;;22.70
44429;BMP180;30134;47.866;-4.222;2023-05-10T13:38:19;101592.00;;;22.60
44429;BMP180;30134;47.866;-4.222;2023-05-10T13:40:45;101595.00;;;22.60
44429;BMP180;30134;47.866;-4.222;2023-05-10T13:43:11;101593.00;;;22.60
44429;BMP180;30134;47.866;-4.222;2023-05-10T13:45:38;101594.00;;;22.40
44429;BMP180;30134;47.866;-4.222;2023-05-10T13:48:04;101599.00;;;22.50
44429;BMP180;30134;47.866;-4.222;2023-05-10T13:50:30;101594.00;;;22.50
44429;BMP180;30134;47.866;-4.222;2023-05-10T13:52:57;101597.00;;;22.60
44429;BMP180;30134;47.866;-4.222;2023-05-10T13:55:23;101597.00;;;22.50
44429;BMP180;30134;47.866;-4.222;2023-05-10T13:57:49;101603.00;;;22.70
44429;BMP180;30134;47.866;-4.222;2023-05-10T14:00:16;101607.00;;;22.40
44429;BMP180;30134;47.866;-4.222;2023-05-10T14:02:42;101595.00;;;22.20
44429;BMP180;30134;47.866;-4.222;2023-05-10T14:05:08;101594.00;;;22.30
44429;BMP180;30134;47.866;-4.222;2023-05-10T14:07:34;101616.00;;;22.50
44429;BMP180;30134;47.866;-4.222;2023-05-10T14:10:00;101609.00;;;22.50
44429;BMP180;30134;47.866;-4.222;2023-05-10T14:12:27;101607.00;;;22.30
44429;BMP180;30134;47.866;-4.222;2023-05-10T14:14:53;101620.00;;;22.50
44429;BMP180;30134;47.866;-4.222;2023-05-10T14:17:19;101605.00;;;22.20
44429;BMP180;30134;47.866;-4.222;2023-05-10T14:19:45;101606.00;;;22.50
44429;BMP180;30134;47.866;-4.222;2023-05-10T14:22:11;101601.00;;;22.50
44429;BMP180;30134;47.866;-4.222;2023-05-10T14:24:38;101607.00;;;22.40
44429;BMP180;30134;47.866;-4.222;2023-05-10T14:27:04;101589.00;;;22.40